Time;durP1;ratioP1;P1;durP2;ratioP2;P2;SDS_P1;SDS_P2;PMS_P1;PMS_P2;Temp;Humidity;BMP_temperature;BMP_pressure;BME280_temperature;BME280_humidity;BME280_pressure;Samples;Min_cycle;Max_cycle;Signal;HPM_P1;HPM_P2
2022/12/27 00:00:28;;;;;;;2.20;0.50;;;;;;;;;;103828;1304;25644;-81
2022/12/27 00:03:15;;;;;;;1.60;0.20;;;;;;;;;;103803;1304;22464;-82
2022/12/27 00:05:45;;;;;;;1.40;0.30;;;;;;;;;;103801;1304;22481;-79
2022/12/27 00:08:13;;;;;;;2.00;0.40;;;;;;;;;;103410;1307;25301;-79
2022/12/27 00:10:40;;;;;;;1.60;0.40;;;;;;;;;;103743;1307;25302;-82
2022/12/27 00:13:10;;;;;;;3.30;0.60;;;;;;;;;;103528;1298;24317;-81
2022/12/27 00:15:37;;;;;;;2.00;0.50;;;;;;;;;;103424;1304;24219;-82
2022/12/27 00:18:03;;;;;;;3.10;0.60;;;;;;;;;;103547;1304;25265;-80
2022/12/27 00:20:30;;;;;;;2.50;0.70;;;;;;;;;;102696;1304;1609742;-77
2022/12/27 00:22:58;;;;;;;2.40;0.80;;;;;;;;;;103786;1280;24166;-83
2022/12/27 00:25:25;;;;;;;5.40;0.60;;;;;;;;;;103719;1305;22474;-78
2022/12/27 00:27:52;;;;;;;3.20;0.60;;;;;;;;;;103504;1307;22579;-75
2022/12/27 00:30:18;;;;;;;2.60;0.60;;;;;;;;;;103542;1307;25353;-82
2022/12/27 00:32:45;;;;;;;2.60;0.50;;;;;;;;;;103513;1307;25206;-79
2022/12/27 00:35:12;;;;;;;2.40;0.60;;;;;;;;;;103539;1307;24243;-77
2022/12/27 00:37:38;;;;;;;2.10;0.70;;;;;;;;;;103715;1307;24287;-81
2022/12/27 00:40:05;;;;;;;1.80;0.60;;;;;;;;;;103762;1304;25343;-79
2022/12/27 00:42:32;;;;;;;3.80;0.60;;;;;;;;;;103803;1303;21678;-78
2022/12/27 00:44:59;;;;;;;3.70;0.80;;;;;;;;;;103790;1290;22483;-83
2022/12/27 00:47:26;;;;;;;1.60;0.50;;;;;;;;;;103536;1297;25389;-82
2022/12/27 00:49:52;;;;;;;2.30;0.50;;;;;;;;;;103506;1307;24419;-77
2022/12/27 00:52:19;;;;;;;1.70;0.40;;;;;;;;;;103499;1307;25359;-81
2022/12/27 00:54:46;;;;;;;3.20;0.70;;;;;;;;;;103507;1290;23654;-79
2022/12/27 00:57:12;;;;;;;2.10;0.40;;;;;;;;;;103613;1299;22457;-82
2022/12/27 00:59:39;;;;;;;3.80;0.80;;;;;;;;;;103753;1297;22475;-80
2022/12/27 01:02:05;;;;;;;3.20;0.50;;;;;;;;;;103613;1307;22934;-80
2022/12/27 01:04:32;;;;;;;3.00;0.50;;;;;;;;;;103576;1304;22490;-77
2022/12/27 01:06:59;;;;;;;4.00;0.60;;;;;;;;;;103594;1292;25173;-82
2022/12/27 01:09:25;;;;;;;2.20;0.60;;;;;;;;;;103511;1307;24269;-78
2022/12/27 01:11:52;;;;;;;2.30;0.60;;;;;;;;;;103459;1306;22531;-82
2022/12/27 01:14:19;;;;;;;3.80;0.50;;;;;;;;;;103496;1303;25461;-78
2022/12/27 01:16:46;;;;;;;3.20;0.50;;;;;;;;;;103742;1304;22486;-83
2022/12/27 01:19:13;;;;;;;3.20;0.50;;;;;;;;;;103729;1283;25298;-75
2022/12/27 01:21:40;;;;;;;3.40;0.60;;;;;;;;;;103713;1304;25585;-81
2022/12/27 01:24:07;;;;;;;4.70;0.80;;;;;;;;;;103780;1304;25258;-78
2022/12/27 01:26:33;;;;;;;3.60;0.60;;;;;;;;;;103685;1302;26966;-78
2022/12/27 01:29:00;;;;;;;4.20;0.50;;;;;;;;;;103543;1304;24321;-74
2022/12/27 01:31:27;;;;;;;1.90;0.40;;;;;;;;;;103665;1307;24340;-78
2022/12/27 01:33:58;;;;;;;3.90;0.50;;;;;;;;;;103423;1306;24226;-76
2022/12/27 01:36:26;;;;;;;5.00;0.80;;;;;;;;;;103473;1305;22583;-75
2022/12/27 01:38:53;;;;;;;3.50;0.80;;;;;;;;;;103754;1296;22461;-75
2022/12/27 01:44:24;;;;;;;5.10;0.60;;;;;;;;;;103745;1304;22474;-76
2022/12/27 01:46:51;;;;;;;4.30;0.60;;;;;;;;;;103789;1304;22470;-85
2022/12/27 01:49:18;;;;;;;4.30;0.80;;;;;;;;;;103430;1306;24340;-80
2022/12/27 01:51:45;;;;;;;2.80;0.60;;;;;;;;;;103437;1301;22474;-77
2022/12/27 01:54:12;;;;;;;3.80;0.60;;;;;;;;;;103303;1306;25369;-80
2022/12/27 01:56:39;;;;;;;3.40;0.50;;;;;;;;;;103485;1305;22042;-75
2022/12/27 01:59:07;;;;;;;2.20;0.50;;;;;;;;;;103688;1304;22464;-78
2022/12/27 02:01:38;;;;;;;1.60;0.50;;;;;;;;;;103765;1304;22504;-79
2022/12/27 02:04:11;;;;;;;2.60;0.40;;;;;;;;;;103533;1304;23854;-81
2022/12/27 02:06:38;;;;;;;3.40;0.60;;;;;;;;;;103810;1304;24230;-82
2022/12/27 02:09:09;;;;;;;5.00;0.50;;;;;;;;;;103471;1306;22514;-78
2022/12/27 02:11:52;;;;;;;5.70;0.80;;;;;;;;;;103481;1306;24221;-82
2022/12/27 02:14:40;;;;;;;4.50;0.60;;;;;;;;;;103489;1306;22476;-85
2022/12/27 02:17:09;;;;;;;5.40;1.10;;;;;;;;;;103527;1301;22472;-81
2022/12/27 02:19:36;;;;;;;4.90;0.80;;;;;;;;;;103498;1304;25311;-78
2022/12/27 02:22:08;;;;;;;3.00;0.50;;;;;;;;;;103774;1304;22455;-82
2022/12/27 02:24:54;;;;;;;4.50;0.60;;;;;;;;;;103680;1301;26477;-78
2022/12/27 02:27:47;;;;;;;4.60;0.90;;;;;;;;;;103804;1298;23021;-77
2022/12/27 02:30:15;;;;;;;5.90;0.80;;;;;;;;;;103463;1302;24245;-83
2022/12/27 02:33:02;;;;;;;3.60;0.60;;;;;;;;;;103510;1297;24393;-83
2022/12/27 02:35:38;;;;;;;4.60;0.60;;;;;;;;;;103482;1306;22510;-83
2022/12/27 02:38:07;;;;;;;4.10;0.80;;;;;;;;;;103555;1305;25348;-77
2022/12/27 02:54:43;;;;;;;5.60;0.80;;;;;;;;;;103469;1284;25300;-80
2022/12/27 02:57:16;;;;;;;5.50;0.60;;;;;;;;;;103509;1301;22470;-78
2022/12/27 03:03:20;;;;;;;6.40;0.80;;;;;;;;;;103706;1307;22477;-76
2022/12/27 03:08:50;;;;;;;3.60;0.60;;;;;;;;;;103800;1304;22475;-76
2022/12/27 03:17:07;;;;;;;5.20;0.90;;;;;;;;;;103410;1306;25532;-76
2022/12/27 03:25:27;;;;;;;6.50;0.70;;;;;;;;;;103714;1274;22456;-81
2022/12/27 03:33:35;;;;;;;6.30;0.70;;;;;;;;;;103443;1306;22477;-81
2022/12/27 03:38:59;;;;;;;8.30;1.30;;;;;;;;;;103438;1306;25290;-80
2022/12/27 03:44:24;;;;;;;5.80;0.90;;;;;;;;;;103763;1304;24228;-76
2022/12/27 03:46:55;;;;;;;6.90;0.90;;;;;;;;;;103522;1307;25655;-81
2022/12/27 03:49:40;;;;;;;6.50;0.70;;;;;;;;;;103497;1298;22464;-78
2022/12/27 03:52:18;;;;;;;6.50;0.80;;;;;;;;;;103427;1304;22619;-79
2022/12/27 03:54:46;;;;;;;4.90;0.90;;;;;;;;;;103484;1306;24236;-79
2022/12/27 03:57:14;;;;;;;7.70;0.90;;;;;;;;;;103457;1306;22461;-77
2022/12/27 03:59:41;;;;;;;6.10;0.70;;;;;;;;;;103567;1306;22539;-80
2022/12/27 04:02:08;;;;;;;7.80;1.00;;;;;;;;;;103700;1306;24429;-80
2022/12/27 04:04:35;;;;;;;8.20;0.80;;;;;;;;;;103538;1307;25206;-77
2022/12/27 04:07:02;;;;;;;4.60;0.60;;;;;;;;;;103723;1304;22474;-79
2022/12/27 04:37:04;;;;;;;8.30;0.90;;;;;;;;;;103451;1306;24263;-75
2022/12/27 04:39:31;;;;;;;8.20;1.10;;;;;;;;;;103448;1306;25324;-79
2022/12/27 04:54:55;;;;;;;8.30;0.90;;;;;;;;;;103518;1307;24226;-77
2022/12/27 04:55:58;;;;;;;5.20;0.80;;;;;;;;;;103443;1306;24881;-81
2022/12/27 04:58:24;;;;;;;7.30;1.10;;;;;;;;;;103459;1306;25258;-75
2022/12/27 05:03:37;;;;;;;7.80;1.40;;;;;;;;;;103511;1307;25119;-79
2022/12/27 05:06:04;;;;;;;6.30;0.90;;;;;;;;;;103769;1304;22549;-75
2022/12/27 05:14:02;;;;;;;6.30;0.60;;;;;;;;;;103435;1306;25264;-77
2022/12/27 05:16:30;;;;;;;6.40;0.70;;;;;;;;;;103447;1306;22549;-76
2022/12/27 05:18:57;;;;;;;6.80;1.00;;;;;;;;;;103484;1298;22492;-81
2022/12/27 05:21:24;;;;;;;14.50;1.30;;;;;;;;;;103463;1305;25328;-77
2022/12/27 05:26:37;;;;;;;7.30;0.50;;;;;;;;;;103624;1307;25204;-76
2022/12/27 05:29:05;;;;;;;6.00;0.60;;;;;;;;;;103537;1306;21729;-75
2022/12/27 05:31:33;;;;;;;7.90;0.70;;;;;;;;;;103529;1307;22465;-83
2022/12/27 05:33:59;;;;;;;8.50;1.20;;;;;;;;;;103358;1307;24342;-79
2022/12/27 05:36:26;;;;;;;4.20;0.70;;;;;;;;;;103482;1306;25344;-76
2022/12/27 05:38:53;;;;;;;3.20;0.70;;;;;;;;;;103426;1306;22546;-80
2022/12/27 05:41:19;;;;;;;7.00;0.70;;;;;;;;;;103478;1294;24382;-81
2022/12/27 05:43:46;;;;;;;6.80;0.90;;;;;;;;;;103618;1304;25271;-77
2022/12/27 05:46:17;;;;;;;7.00;0.80;;;;;;;;;;103487;1298;22482;-76
2022/12/27 05:48:45;;;;;;;9.50;1.10;;;;;;;;;;103756;1304;24237;-78
2022/12/27 05:51:17;;;;;;;6.40;0.80;;;;;;;;;;103491;1304;25360;-76
2022/12/27 05:53:44;;;;;;;7.80;1.00;;;;;;;;;;103491;1306;22441;-77
2022/12/27 05:56:13;;;;;;;4.50;0.60;;;;;;;;;;103433;1306;22477;-82
2022/12/27 05:58:40;;;;;;;7.40;0.90;;;;;;;;;;103470;1291;22463;-81
2022/12/27 06:01:08;;;;;;;6.70;0.90;;;;;;;;;;103314;1305;22484;-74
2022/12/27 06:03:35;;;;;;;8.70;1.10;;;;;;;;;;103332;1301;24285;-76
2022/12/27 06:06:03;;;;;;;8.60;1.30;;;;;;;;;;103519;1306;25296;-79
2022/12/27 06:08:30;;;;;;;8.60;0.80;;;;;;;;;;103515;1306;24391;-78
2022/12/27 06:11:01;;;;;;;8.90;1.00;;;;;;;;;;103509;1307;22515;-80
2022/12/27 06:13:28;;;;;;;9.70;0.60;;;;;;;;;;103709;1305;23351;-80
2022/12/27 06:15:56;;;;;;;9.20;0.90;;;;;;;;;;103508;1306;22614;-76
2022/12/27 06:18:24;;;;;;;8.60;1.20;;;;;;;;;;103459;1306;22414;-77
2022/12/27 06:20:51;;;;;;;7.60;0.90;;;;;;;;;;103428;1306;22569;-80
2022/12/27 06:23:17;;;;;;;4.80;0.70;;;;;;;;;;103431;1305;22461;-77
2022/12/27 06:25:44;;;;;;;7.60;0.80;;;;;;;;;;103503;1307;22468;-77
2022/12/27 06:28:10;;;;;;;6.00;0.60;;;;;;;;;;103781;1298;25198;-80
2022/12/27 06:30:37;;;;;;;8.50;1.20;;;;;;;;;;103512;1307;24244;-78
2022/12/27 06:33:04;;;;;;;9.50;1.00;;;;;;;;;;103489;1297;22475;-78
2022/12/27 06:35:30;;;;;;;7.30;1.00;;;;;;;;;;103429;1305;22480;-82
2022/12/27 06:37:57;;;;;;;5.70;1.00;;;;;;;;;;103450;1306;22474;-79
2022/12/27 06:40:23;;;;;;;10.60;1.10;;;;;;;;;;103352;1307;22471;-77
2022/12/27 06:42:50;;;;;;;4.60;0.60;;;;;;;;;;103501;1306;25213;-79
2022/12/27 06:45:17;;;;;;;5.10;0.80;;;;;;;;;;103548;1304;24191;-79
2022/12/27 06:47:43;;;;;;;8.30;0.70;;;;;;;;;;103472;1306;25574;-75
2022/12/27 06:50:10;;;;;;;5.80;0.70;;;;;;;;;;103446;1292;22470;-80
2022/12/27 06:52:36;;;;;;;9.20;0.80;;;;;;;;;;103523;1291;25320;-78
2022/12/27 06:55:03;;;;;;;4.50;0.90;;;;;;;;;;103553;1306;22466;-78
2022/12/27 06:57:30;;;;;;;4.20;0.70;;;;;;;;;;103443;1305;26606;-81
2022/12/27 06:59:56;;;;;;;10.80;1.20;;;;;;;;;;103502;1306;25280;-78
2022/12/27 07:02:23;;;;;;;6.20;0.60;;;;;;;;;;103510;1306;22484;-76
2022/12/27 07:04:50;;;;;;;4.60;0.60;;;;;;;;;;103448;1306;22833;-83
2022/12/27 07:07:16;;;;;;;8.00;0.90;;;;;;;;;;103535;1291;24822;-77
2022/12/27 07:09:43;;;;;;;5.30;0.60;;;;;;;;;;103716;1307;22461;-81
2022/12/27 07:12:09;;;;;;;4.60;0.60;;;;;;;;;;103676;1302;24266;-83
2022/12/27 07:14:36;;;;;;;6.40;0.90;;;;;;;;;;103463;1305;25308;-78
2022/12/27 07:17:03;;;;;;;4.80;0.70;;;;;;;;;;103478;1291;22464;-80
2022/12/27 07:19:29;;;;;;;4.90;1.00;;;;;;;;;;103449;1306;24363;-79
2022/12/27 07:21:56;;;;;;;5.20;0.80;;;;;;;;;;103467;1306;22471;-75
2022/12/27 07:24:23;;;;;;;5.10;1.50;;;;;;;;;;103408;1301;22486;-74
2022/12/27 07:26:50;;;;;;;7.00;1.20;;;;;;;;;;103447;1307;22462;-81
2022/12/27 07:29:16;;;;;;;5.90;1.00;;;;;;;;;;103489;1307;25326;-76
2022/12/27 07:31:43;;;;;;;6.90;1.30;;;;;;;;;;103712;1304;24638;-79
2022/12/27 07:34:10;;;;;;;6.60;0.80;;;;;;;;;;103436;1306;25286;-77
2022/12/27 07:36:38;;;;;;;4.70;0.80;;;;;;;;;;103374;1307;25254;-76
2022/12/27 07:39:05;;;;;;;6.50;0.90;;;;;;;;;;103295;1306;22458;-77
2022/12/27 07:41:32;;;;;;;6.20;1.70;;;;;;;;;;103448;1306;25207;-79
2022/12/27 07:44:00;;;;;;;7.70;0.80;;;;;;;;;;103430;1306;22597;-76
2022/12/27 07:46:27;;;;;;;9.50;1.20;;;;;;;;;;103608;1306;23430;-75
2022/12/27 07:48:55;;;;;;;10.90;1.40;;;;;;;;;;103451;1283;23902;-79
2022/12/27 07:51:22;;;;;;;4.60;0.80;;;;;;;;;;103490;1305;22469;-81
2022/12/27 07:53:49;;;;;;;8.50;1.20;;;;;;;;;;103732;1296;26605;-79
2022/12/27 07:56:19;;;;;;;7.70;1.20;;;;;;;;;;103561;1304;25387;-75
2022/12/27 07:58:47;;;;;;;9.90;1.70;;;;;;;;;;103498;1306;25290;-76
2022/12/27 08:01:14;;;;;;;10.00;1.00;;;;;;;;;;103421;1306;24426;-81
2022/12/27 08:03:41;;;;;;;8.00;1.10;;;;;;;;;;103478;1305;22462;-80
2022/12/27 08:06:24;;;;;;;9.90;1.10;;;;;;;;;;103481;1294;22931;-82
2022/12/27 08:08:51;;;;;;;7.70;1.10;;;;;;;;;;103504;1306;25366;-79
2022/12/27 08:11:19;;;;;;;6.90;1.30;;;;;;;;;;103475;1307;22476;-82
2022/12/27 08:13:46;;;;;;;5.10;0.80;;;;;;;;;;103488;1306;22532;-77
2022/12/27 08:16:17;;;;;;;7.90;1.00;;;;;;;;;;103429;1306;23851;-80
2022/12/27 08:18:44;;;;;;;6.60;1.50;;;;;;;;;;103439;1306;22465;-81
2022/12/27 08:21:11;;;;;;;8.00;1.00;;;;;;;;;;103436;1306;22414;-80
2022/12/27 08:23:38;;;;;;;5.80;0.90;;;;;;;;;;103416;1301;22934;-74
2022/12/27 08:26:05;;;;;;;4.50;0.80;;;;;;;;;;103460;1306;22590;-81
2022/12/27 08:28:32;;;;;;;6.40;0.90;;;;;;;;;;103447;1305;24335;-77
2022/12/27 08:30:59;;;;;;;9.40;1.20;;;;;;;;;;103551;1294;24449;-80
2022/12/27 08:33:26;;;;;;;6.20;1.40;;;;;;;;;;103508;1307;22475;-76
2022/12/27 08:35:55;;;;;;;5.40;0.80;;;;;;;;;;103457;1305;22534;-80
2022/12/27 08:38:22;;;;;;;6.50;0.70;;;;;;;;;;103317;1305;22490;-81
2022/12/27 08:40:49;;;;;;;7.70;1.20;;;;;;;;;;103457;1306;25375;-77
2022/12/27 08:43:16;;;;;;;7.60;0.90;;;;;;;;;;103470;1291;22561;-78
2022/12/27 08:45:43;;;;;;;9.40;0.90;;;;;;;;;;103664;1298;24816;-76
2022/12/27 08:48:10;;;;;;;7.00;1.20;;;;;;;;;;103615;1283;22461;-75
2022/12/27 08:50:36;;;;;;;4.60;0.70;;;;;;;;;;103557;1307;22470;-76
2022/12/27 08:53:03;;;;;;;4.80;0.70;;;;;;;;;;103491;1307;25254;-78
2022/12/27 08:55:30;;;;;;;5.40;1.10;;;;;;;;;;103480;1307;22633;-79
2022/12/27 08:57:58;;;;;;;5.40;0.70;;;;;;;;;;103478;1306;22472;-79
2022/12/27 09:00:28;;;;;;;3.10;0.70;;;;;;;;;;103430;1304;22476;-81
2022/12/27 09:02:55;;;;;;;3.30;0.60;;;;;;;;;;103397;1306;24439;-80
2022/12/27 09:05:23;;;;;;;6.30;0.90;;;;;;;;;;103492;1298;22463;-76
2022/12/27 09:07:50;;;;;;;7.10;1.10;;;;;;;;;;103529;1305;22447;-77
2022/12/27 09:10:17;;;;;;;7.40;0.80;;;;;;;;;;103494;1298;22466;-75
2022/12/27 09:12:44;;;;;;;8.40;0.80;;;;;;;;;;103701;1304;22469;-80
2022/12/27 09:15:11;;;;;;;7.50;0.80;;;;;;;;;;103557;1285;22466;-80
2022/12/27 09:17:38;;;;;;;3.70;0.70;;;;;;;;;;103516;1306;23851;-75
2022/12/27 09:20:05;;;;;;;4.90;0.70;;;;;;;;;;103403;1306;22587;-80
2022/12/27 09:22:32;;;;;;;5.90;0.70;;;;;;;;;;103428;1306;22469;-78
2022/12/27 09:24:58;;;;;;;5.40;0.80;;;;;;;;;;103475;1289;26838;-82
2022/12/27 09:27:25;;;;;;;8.20;0.80;;;;;;;;;;103443;1293;22482;-79
2022/12/27 09:29:52;;;;;;;6.90;1.40;;;;;;;;;;103505;1300;22685;-75
2022/12/27 09:32:18;;;;;;;4.60;0.80;;;;;;;;;;103636;1307;22480;-76
2022/12/27 09:34:45;;;;;;;6.10;1.00;;;;;;;;;;103499;1283;21779;-77
2022/12/27 09:37:12;;;;;;;9.00;1.20;;;;;;;;;;103417;1305;25367;-78
2022/12/27 09:39:39;;;;;;;5.20;0.90;;;;;;;;;;103435;1284;25361;-77
2022/12/27 09:42:14;;;;;;;6.60;0.80;;;;;;;;;;103524;1282;22473;-77
2022/12/27 09:44:51;;;;;;;5.40;0.80;;;;;;;;;;103556;1306;26584;-77
2022/12/27 09:47:20;;;;;;;5.60;0.90;;;;;;;;;;103411;1283;22464;-81
2022/12/27 09:49:50;;;;;;;6.80;0.90;;;;;;;;;;103448;1306;25517;-78
2022/12/27 09:52:19;;;;;;;6.30;1.00;;;;;;;;;;103487;1307;22472;-79
2022/12/27 09:54:59;;;;;;;5.20;0.70;;;;;;;;;;103508;1307;25433;-75
2022/12/27 09:57:30;;;;;;;6.20;1.00;;;;;;;;;;103707;1305;22470;-77
2022/12/27 10:00:04;;;;;;;6.20;0.90;;;;;;;;;;103498;1306;22448;-76
2022/12/27 10:02:33;;;;;;;5.00;0.90;;;;;;;;;;103641;1289;23073;-77
2022/12/27 10:05:01;;;;;;;5.70;0.60;;;;;;;;;;103452;1285;22588;-79
2022/12/27 10:07:47;;;;;;;5.90;0.90;;;;;;;;;;103594;1283;22470;-75
2022/12/27 10:10:20;;;;;;;7.60;1.20;;;;;;;;;;103577;1289;22484;-76
2022/12/27 10:12:46;;;;;;;5.80;0.80;;;;;;;;;;103631;1282;26503;-78
2022/12/27 10:15:13;;;;;;;5.20;0.90;;;;;;;;;;103487;1304;25191;-82
2022/12/27 10:17:46;;;;;;;8.80;0.90;;;;;;;;;;103818;1304;25197;-82
2022/12/27 10:20:14;;;;;;;4.90;0.90;;;;;;;;;;103494;1305;25327;-77
2022/12/27 10:22:51;;;;;;;8.70;1.60;;;;;;;;;;103706;1305;25406;-82
2022/12/27 10:25:19;;;;;;;9.30;1.40;;;;;;;;;;103455;1307;24250;-81
2022/12/27 10:27:47;;;;;;;3.80;0.90;;;;;;;;;;103534;1306;23058;-82
2022/12/27 10:30:15;;;;;;;5.10;0.80;;;;;;;;;;103516;1304;25336;-81
2022/12/27 10:32:43;;;;;;;6.70;0.90;;;;;;;;;;103808;1304;24355;-86
2022/12/27 10:35:12;;;;;;;7.90;1.40;;;;;;;;;;103518;1304;22469;-79
2022/12/27 10:37:39;;;;;;;4.50;0.70;;;;;;;;;;103766;1304;22462;-80
2022/12/27 10:40:09;;;;;;;6.60;0.90;;;;;;;;;;103450;1305;22472;-78
2022/12/27 10:42:41;;;;;;;4.50;0.70;;;;;;;;;;103586;1305;24334;-81
2022/12/27 10:45:28;;;;;;;5.20;0.90;;;;;;;;;;103389;1282;22480;-79
2022/12/27 10:47:56;;;;;;;6.20;0.90;;;;;;;;;;103344;1305;25441;-79
2022/12/27 10:50:24;;;;;;;6.40;1.40;;;;;;;;;;103392;1303;22436;-85
2022/12/27 10:52:51;;;;;;;4.40;0.90;;;;;;;;;;103566;1307;24203;-82
2022/12/27 10:55:36;;;;;;;6.10;0.90;;;;;;;;;;103455;1307;22543;-79
2022/12/27 10:58:30;;;;;;;8.50;1.10;;;;;;;;;;103470;1297;25454;-83
2022/12/27 11:00:56;;;;;;;6.40;1.10;;;;;;;;;;103542;1298;22532;-76
2022/12/27 11:03:25;;;;;;;5.80;1.20;;;;;;;;;;103977;1275;22463;-78
2022/12/27 11:06:06;;;;;;;4.80;1.00;;;;;;;;;;103483;1288;22523;-81
2022/12/27 11:08:33;;;;;;;5.20;0.90;;;;;;;;;;103391;1307;26628;-77
2022/12/27 11:11:19;;;;;;;6.40;0.90;;;;;;;;;;103644;1288;22534;-80
2022/12/27 11:13:46;;;;;;;6.10;0.90;;;;;;;;;;103883;1287;25448;-81
2022/12/27 11:19:21;;;;;;;7.30;1.00;;;;;;;;;;103786;1304;27461;-79
2022/12/27 11:21:48;;;;;;;5.10;1.00;;;;;;;;;;103539;1289;22509;-80
2022/12/27 11:24:16;;;;;;;4.40;0.80;;;;;;;;;;103619;1290;22476;-83
2022/12/27 11:26:57;;;;;;;7.70;1.30;;;;;;;;;;103589;1301;22478;-82
2022/12/27 11:29:26;;;;;;;9.10;0.90;;;;;;;;;;103661;1306;26705;-77
2022/12/27 11:31:54;;;;;;;6.30;1.00;;;;;;;;;;103574;1304;22469;-83
2022/12/27 11:34:24;;;;;;;6.10;0.90;;;;;;;;;;103642;1292;26499;-83
2022/12/27 11:36:53;;;;;;;5.40;0.90;;;;;;;;;;103685;1289;23166;-83
2022/12/27 11:39:41;;;;;;;6.50;0.90;;;;;;;;;;103544;1280;22936;-78
2022/12/27 11:42:21;;;;;;;4.60;0.90;;;;;;;;;;103608;1281;25183;-79
2022/12/27 11:44:57;;;;;;;5.10;0.90;;;;;;;;;;103506;1307;25214;-78
2022/12/27 11:47:33;;;;;;;5.00;1.10;;;;;;;;;;103461;1281;24170;-77
2022/12/27 11:50:12;;;;;;;7.90;1.10;;;;;;;;;;103570;1287;22527;-76
2022/12/27 11:52:50;;;;;;;8.60;1.50;;;;;;;;;;103514;1288;22464;-80
2022/12/27 11:55:23;;;;;;;9.30;1.70;;;;;;;;;;103692;1279;23139;-80
2022/12/27 11:57:56;;;;;;;7.40;1.70;;;;;;;;;;103576;1288;25347;-78
2022/12/27 12:00:26;;;;;;;7.20;1.60;;;;;;;;;;103722;1280;22476;-77
2022/12/27 12:02:56;;;;;;;6.10;1.50;;;;;;;;;;103598;1283;24234;-78
2022/12/27 12:12:34;;;;;;;8.70;2.60;;;;;;;;;;100498;1319;544898;-80
2022/12/27 12:15:21;;;;;;;7.90;2.00;;;;;;;;;;102402;1319;25355;-79
2022/12/27 12:17:51;;;;;;;10.10;1.80;;;;;;;;;;102096;1317;24305;-77
2022/12/27 12:20:38;;;;;;;10.30;1.70;;;;;;;;;;102697;1300;24078;-76
2022/12/27 12:23:11;;;;;;;5.70;1.40;;;;;;;;;;102726;1316;22518;-76
2022/12/27 12:25:46;;;;;;;7.20;1.80;;;;;;;;;;101648;1291;1563351;-79
2022/12/27 12:28:27;;;;;;;9.50;1.90;;;;;;;;;;103242;1294;22463;-81
2022/12/27 12:31:10;;;;;;;7.80;1.60;;;;;;;;;;103040;1297;23002;-82
2022/12/27 12:33:48;;;;;;;6.30;1.30;;;;;;;;;;103050;1287;23070;-78
2022/12/27 12:36:23;;;;;;;7.40;1.30;;;;;;;;;;102988;1291;24250;-81
2022/12/27 12:39:16;;;;;;;9.40;1.70;;;;;;;;;;103278;1287;25359;-78
2022/12/27 12:41:58;;;;;;;8.50;1.80;;;;;;;;;;103382;1284;22679;-79
2022/12/27 12:44:55;;;;;;;7.80;2.40;;;;;;;;;;103623;1295;26029;-78
2022/12/27 12:47:41;;;;;;;9.30;1.80;;;;;;;;;;103095;1292;22503;-79
2022/12/27 12:50:26;;;;;;;10.30;2.70;;;;;;;;;;103399;1293;23855;-79
2022/12/27 12:52:56;;;;;;;11.00;3.20;;;;;;;;;;103521;1285;22597;-77
2022/12/27 12:55:38;;;;;;;12.30;3.40;;;;;;;;;;103646;1284;24790;-80
2022/12/27 12:58:24;;;;;;;8.50;2.30;;;;;;;;;;103463;1285;24226;-77
2022/12/27 13:01:12;;;;;;;8.90;2.10;;;;;;;;;;103532;1285;22477;-79
2022/12/27 13:03:55;;;;;;;7.30;2.50;;;;;;;;;;103474;1292;22470;-82
2022/12/27 13:06:21;;;;;;;10.20;2.70;;;;;;;;;;103477;1299;22604;-81
2022/12/27 13:09:11;;;;;;;11.20;3.30;;;;;;;;;;103488;1292;25309;-81
2022/12/27 13:11:57;;;;;;;13.50;2.90;;;;;;;;;;103241;1307;25377;-79
2022/12/27 13:14:40;;;;;;;20.40;8.20;;;;;;;;;;103539;1307;22477;-78
2022/12/27 13:17:14;;;;;;;13.30;4.70;;;;;;;;;;103633;1305;22696;-83
2022/12/27 13:19:53;;;;;;;8.90;2.30;;;;;;;;;;103607;1282;22486;-77
2022/12/27 13:22:28;;;;;;;13.70;3.60;;;;;;;;;;103493;1307;22438;-78
2022/12/27 13:24:58;;;;;;;15.70;3.40;;;;;;;;;;103484;1289;22542;-83
2022/12/27 13:27:40;;;;;;;11.70;2.60;;;;;;;;;;103587;1288;23083;-78
2022/12/27 13:30:17;;;;;;;12.80;2.70;;;;;;;;;;103592;1289;22532;-79
2022/12/27 13:32:47;;;;;;;10.20;2.10;;;;;;;;;;103547;1289;24383;-79
2022/12/27 13:35:14;;;;;;;9.90;2.80;;;;;;;;;;103360;1285;22488;-79
2022/12/27 13:37:41;;;;;;;11.30;2.30;;;;;;;;;;103468;1306;22464;-79
2022/12/27 13:40:17;;;;;;;9.40;2.60;;;;;;;;;;103476;1289;22468;-79
2022/12/27 13:43:07;;;;;;;10.60;2.70;;;;;;;;;;103693;1298;22465;-80
2022/12/27 13:45:45;;;;;;;16.70;4.30;;;;;;;;;;103818;1288;22480;-78
2022/12/27 13:48:22;;;;;;;10.00;2.30;;;;;;;;;;103505;1292;25266;-81
2022/12/27 13:58:10;;;;;;;13.20;4.70;;;;;;;;;;100402;1336;544782;-84
2022/12/27 14:00:51;;;;;;;12.00;3.60;;;;;;;;;;102586;1317;25341;-78
2022/12/27 14:10:32;;;;;;;13.10;4.10;;;;;;;;;;100861;1333;544773;-81
2022/12/27 14:13:06;;;;;;;17.90;6.20;;;;;;;;;;102446;1314;25388;-79
2022/12/27 14:15:45;;;;;;;10.20;3.30;;;;;;;;;;102465;1319;24235;-81
2022/12/27 14:18:19;;;;;;;15.70;3.80;;;;;;;;;;102616;1319;22489;-83
2022/12/27 14:21:03;;;;;;;16.10;5.40;;;;;;;;;;102526;1318;25664;-80
2022/12/27 14:23:31;;;;;;;10.80;3.90;;;;;;;;;;101349;1316;1736942;-83
2022/12/27 14:26:04;;;;;;;13.40;4.00;;;;;;;;;;102718;1310;24213;-82
2022/12/27 14:28:31;;;;;;;12.40;3.80;;;;;;;;;;102661;1308;22490;-79
2022/12/27 14:30:58;;;;;;;9.00;3.00;;;;;;;;;;102828;1316;25423;-80
2022/12/27 14:33:43;;;;;;;11.70;4.20;;;;;;;;;;102674;1316;25972;-78
2022/12/27 14:36:18;;;;;;;11.70;3.30;;;;;;;;;;102808;1308;24495;-76
2022/12/27 14:38:59;;;;;;;8.60;2.80;;;;;;;;;;102850;1316;24247;-79
2022/12/27 14:41:45;;;;;;;11.70;4.20;;;;;;;;;;103449;1307;25293;-79
2022/12/27 14:44:23;;;;;;;12.10;4.00;;;;;;;;;;103498;1306;22488;-80
2022/12/27 14:46:50;;;;;;;14.80;4.00;;;;;;;;;;103278;1307;23857;-82
2022/12/27 14:49:32;;;;;;;16.80;5.80;;;;;;;;;;103477;1306;22497;-80
2022/12/27 14:52:18;;;;;;;12.50;3.60;;;;;;;;;;103438;1307;24210;-80
2022/12/27 14:54:51;;;;;;;11.30;4.40;;;;;;;;;;103503;1307;22513;-78
2022/12/27 14:57:27;;;;;;;11.30;4.10;;;;;;;;;;103532;1300;22529;-83
2022/12/27 14:59:59;;;;;;;12.80;5.30;;;;;;;;;;103448;1307;22519;-77
2022/12/27 15:02:26;;;;;;;32.50;11.20;;;;;;;;;;103508;1304;22483;-80
2022/12/27 15:05:12;;;;;;;24.60;10.80;;;;;;;;;;103781;1303;24293;-81
2022/12/27 15:07:52;;;;;;;14.70;6.90;;;;;;;;;;103751;1303;22587;-82
2022/12/27 15:10:22;;;;;;;11.10;5.30;;;;;;;;;;103659;1299;26612;-84
2022/12/27 15:13:09;;;;;;;12.40;5.00;;;;;;;;;;103492;1283;22482;-80
2022/12/27 15:15:59;;;;;;;12.70;5.20;;;;;;;;;;103697;1304;22434;-79
2022/12/27 15:18:32;;;;;;;10.00;3.70;;;;;;;;;;103696;1299;22588;-79
2022/12/27 15:21:05;;;;;;;11.90;4.40;;;;;;;;;;103571;1304;22484;-82
2022/12/27 15:23:37;;;;;;;12.70;5.00;;;;;;;;;;103664;1297;22461;-80
2022/12/27 15:26:23;;;;;;;12.00;4.30;;;;;;;;;;103625;1300;22473;-79
2022/12/27 15:29:08;;;;;;;11.50;4.50;;;;;;;;;;103597;1304;22482;-80
2022/12/27 15:31:35;;;;;;;17.60;6.90;;;;;;;;;;103585;1305;22721;-79
2022/12/27 15:34:08;;;;;;;15.00;5.20;;;;;;;;;;103585;1305;23857;-81
2022/12/27 15:36:38;;;;;;;13.30;4.20;;;;;;;;;;103720;1306;24310;-80
2022/12/27 15:39:25;;;;;;;13.70;4.70;;;;;;;;;;103695;1290;22480;-79
2022/12/27 15:41:55;;;;;;;20.40;6.70;;;;;;;;;;103596;1284;21715;-82
2022/12/27 15:44:22;;;;;;;16.40;4.60;;;;;;;;;;103616;1288;25284;-79
2022/12/27 15:46:58;;;;;;;18.70;5.40;;;;;;;;;;103703;1284;22485;-82
2022/12/27 15:49:28;;;;;;;24.40;7.10;;;;;;;;;;103723;1288;22512;-77
2022/12/27 15:51:55;;;;;;;15.80;5.20;;;;;;;;;;103592;1283;22581;-80
2022/12/27 15:54:34;;;;;;;13.20;4.50;;;;;;;;;;103461;1306;23295;-78
2022/12/27 15:57:20;;;;;;;16.80;5.60;;;;;;;;;;103573;1275;24282;-81
2022/12/27 16:00:09;;;;;;;25.70;6.90;;;;;;;;;;103437;1306;22541;-81
2022/12/27 16:02:42;;;;;;;17.30;5.60;;;;;;;;;;103420;1304;24183;-80
2022/12/27 16:05:11;;;;;;;17.10;6.10;;;;;;;;;;103730;1296;22501;-82
2022/12/27 16:07:44;;;;;;;16.50;6.80;;;;;;;;;;103500;1306;25206;-79
2022/12/27 16:10:27;;;;;;;15.30;5.00;;;;;;;;;;103766;1304;25255;-80
2022/12/27 16:12:55;;;;;;;14.90;5.40;;;;;;;;;;103574;1304;22696;-79
2022/12/27 16:15:33;;;;;;;12.80;4.40;;;;;;;;;;103517;1301;22588;-81
2022/12/27 16:18:01;;;;;;;14.40;4.70;;;;;;;;;;103523;1306;22606;-84
2022/12/27 16:20:30;;;;;;;15.40;6.40;;;;;;;;;;103602;1284;25215;-83
2022/12/27 16:22:59;;;;;;;14.00;4.50;;;;;;;;;;103473;1282;22463;-80
2022/12/27 16:25:33;;;;;;;16.10;5.40;;;;;;;;;;103664;1281;22692;-78
2022/12/27 16:28:05;;;;;;;13.70;4.00;;;;;;;;;;103521;1288;25450;-78
2022/12/27 16:30:33;;;;;;;14.40;4.20;;;;;;;;;;103741;1282;22890;-78
2022/12/27 16:33:02;;;;;;;14.60;5.20;;;;;;;;;;103419;1287;22435;-80
2022/12/27 16:35:29;;;;;;;13.40;4.10;;;;;;;;;;103600;1292;22478;-83
2022/12/27 16:37:56;;;;;;;12.00;3.80;;;;;;;;;;103364;1306;22590;-82
2022/12/27 16:40:35;;;;;;;9.40;2.80;;;;;;;;;;103334;1306;24252;-82
2022/12/27 16:43:08;;;;;;;8.80;2.50;;;;;;;;;;103437;1305;22461;-78
2022/12/27 16:45:38;;;;;;;10.80;3.30;;;;;;;;;;103450;1306;24400;-78
2022/12/27 16:48:10;;;;;;;11.90;3.70;;;;;;;;;;103419;1298;22893;-79
2022/12/27 16:50:55;;;;;;;14.90;6.20;;;;;;;;;;103421;1294;22470;-79